sensor_id;sensor_type;location;lat;lon;timestamp;P1;durP1;ratioP1;P2;durP2;ratioP2
13040;SDS011;6587;42.728;23.288;2022-10-22T00:01:46;37.07;;;24.03;;
13040;SDS011;6587;42.728;23.288;2022-10-22T00:04:12;43.30;;;24.07;;
13040;SDS011;6587;42.728;23.288;2022-10-22T00:06:39;37.53;;;22.90;;
13040;SDS011;6587;42.728;23.288;2022-10-22T00:09:06;43.20;;;23.37;;
13040;SDS011;6587;42.728;23.288;2022-10-22T00:11:35;38.37;;;22.63;;
13040;SDS011;6587;42.728;23.288;2022-10-22T00:14:01;39.63;;;22.33;;
13040;SDS011;6587;42.728;23.288;2022-10-22T00:16:28;38.77;;;23.57;;
13040;SDS011;6587;42.728;23.288;2022-10-22T00:18:55;32.97;;;20.97;;
13040;SDS011;6587;42.728;23.288;2022-10-22T00:21:21;37.77;;;22.43;;
13040;SDS011;6587;42.728;23.288;2022-10-22T00:23:50;36.90;;;21.70;;
13040;SDS011;6587;42.728;23.288;2022-10-22T00:26:16;40.47;;;22.20;;
13040;SDS011;6587;42.728;23.288;2022-10-22T00:28:44;37.63;;;21.57;;
13040;SDS011;6587;42.728;23.288;2022-10-22T00:31:11;40.00;;;22.37;;
13040;SDS011;6587;42.728;23.288;2022-10-22T00:33:40;36.73;;;21.27;;
13040;SDS011;6587;42.728;23.288;2022-10-22T00:36:07;47.73;;;27.40;;
13040;SDS011;6587;42.728;23.288;2022-10-22T00:38:34;42.83;;;24.23;;
13040;SDS011;6587;42.728;23.288;2022-10-22T00:41:00;42.47;;;23.70;;
13040;SDS011;6587;42.728;23.288;2022-10-22T00:43:27;39.87;;;22.57;;
13040;SDS011;6587;42.728;23.288;2022-10-22T00:45:56;39.07;;;22.67;;
13040;SDS011;6587;42.728;23.288;2022-10-22T00:48:23;44.30;;;23.43;;
13040;SDS011;6587;42.728;23.288;2022-10-22T00:50:53;42.43;;;23.20;;
13040;SDS011;6587;42.728;23.288;2022-10-22T00:53:21;38.70;;;23.47;;
13040;SDS011;6587;42.728;23.288;2022-10-22T00:55:51;41.00;;;23.60;;
13040;SDS011;6587;42.728;23.288;2022-10-22T00:58:19;36.97;;;21.83;;
13040;SDS011;6587;42.728;23.288;2022-10-22T01:00:47;36.30;;;22.40;;
13040;SDS011;6587;42.728;23.288;2022-10-22T01:03:15;36.73;;;22.37;;
13040;SDS011;6587;42.728;23.288;2022-10-22T01:05:42;40.57;;;22.13;;
13040;SDS011;6587;42.728;23.288;2022-10-22T01:08:11;35.70;;;21.30;;
13040;SDS011;6587;42.728;23.288;2022-10-22T01:10:43;36.30;;;21.33;;
13040;SDS011;6587;42.728;23.288;2022-10-22T01:13:15;38.17;;;21.50;;
13040;SDS011;6587;42.728;23.288;2022-10-22T01:15:44;34.10;;;20.80;;
13040;SDS011;6587;42.728;23.288;2022-10-22T01:18:16;34.17;;;19.57;;
13040;SDS011;6587;42.728;23.288;2022-10-22T01:20:48;37.40;;;20.90;;
13040;SDS011;6587;42.728;23.288;2022-10-22T01:23:20;35.00;;;19.73;;
13040;SDS011;6587;42.728;23.288;2022-10-22T01:25:49;32.23;;;19.27;;
13040;SDS011;6587;42.728;23.288;2022-10-22T01:28:21;37.70;;;20.07;;
13040;SDS011;6587;42.728;23.288;2022-10-22T01:30:50;36.43;;;20.13;;
13040;SDS011;6587;42.728;23.288;2022-10-22T01:33:20;33.90;;;18.47;;
13040;SDS011;6587;42.728;23.288;2022-10-22T01:35:47;31.83;;;19.60;;
13040;SDS011;6587;42.728;23.288;2022-10-22T01:38:16;32.70;;;19.20;;
13040;SDS011;6587;42.728;23.288;2022-10-22T01:40:44;34.13;;;20.07;;
13040;SDS011;6587;42.728;23.288;2022-10-22T01:43:11;37.13;;;20.97;;
13040;SDS011;6587;42.728;23.288;2022-10-22T01:45:38;33.80;;;20.03;;
13040;SDS011;6587;42.728;23.288;2022-10-22T01:48:10;34.13;;;20.53;;
13040;SDS011;6587;42.728;23.288;2022-10-22T01:50:44;34.93;;;18.93;;
13040;SDS011;6587;42.728;23.288;2022-10-22T01:53:18;31.40;;;19.83;;
13040;SDS011;6587;42.728;23.288;2022-10-22T01:55:52;32.83;;;20.70;;
13040;SDS011;6587;42.728;23.288;2022-10-22T01:58:24;37.57;;;20.57;;
13040;SDS011;6587;42.728;23.288;2022-10-22T02:00:57;34.37;;;20.83;;
13040;SDS011;6587;42.728;23.288;2022-10-22T02:03:27;38.30;;;22.00;;
13040;SDS011;6587;42.728;23.288;2022-10-22T02:05:56;37.63;;;21.70;;
13040;SDS011;6587;42.728;23.288;2022-10-22T02:08:26;37.10;;;22.73;;
13040;SDS011;6587;42.728;23.288;2022-10-22T02:10:54;37.03;;;22.73;;
13040;SDS011;6587;42.728;23.288;2022-10-22T02:13:24;36.40;;;21.13;;
13040;SDS011;6587;42.728;23.288;2022-10-22T02:15:51;44.50;;;23.97;;
13040;SDS011;6587;42.728;23.288;2022-10-22T02:18:18;35.13;;;19.73;;
13040;SDS011;6587;42.728;23.288;2022-10-22T02:20:47;37.73;;;21.23;;
13040;SDS011;6587;42.728;23.288;2022-10-22T02:23:15;36.90;;;21.40;;
13040;SDS011;6587;42.728;23.288;2022-10-22T02:25:43;39.17;;;21.10;;
13040;SDS011;6587;42.728;23.288;2022-10-22T02:28:14;36.57;;;20.73;;
13040;SDS011;6587;42.728;23.288;2022-10-22T02:30:43;42.13;;;21.60;;
13040;SDS011;6587;42.728;23.288;2022-10-22T02:33:12;35.03;;;20.23;;
13040;SDS011;6587;42.728;23.288;2022-10-22T02:35:40;40.13;;;21.53;;
13040;SDS011;6587;42.728;23.288;2022-10-22T02:38:08;40.80;;;23.53;;
13040;SDS011;6587;42.728;23.288;2022-10-22T02:40:35;39.33;;;24.30;;
13040;SDS011;6587;42.728;23.288;2022-10-22T02:43:03;41.20;;;23.90;;
13040;SDS011;6587;42.728;23.288;2022-10-22T02:45:29;41.03;;;25.73;;
13040;SDS011;6587;42.728;23.288;2022-10-22T02:47:56;48.57;;;29.57;;
13040;SDS011;6587;42.728;23.288;2022-10-22T02:50:23;44.77;;;27.47;;
13040;SDS011;6587;42.728;23.288;2022-10-22T02:52:50;39.47;;;25.63;;
13040;SDS011;6587;42.728;23.288;2022-10-22T02:55:18;41.57;;;25.23;;
13040;SDS011;6587;42.728;23.288;2022-10-22T02:57:45;38.43;;;24.53;;
13040;SDS011;6587;42.728;23.288;2022-10-22T03:00:12;44.80;;;23.93;;
13040;SDS011;6587;42.728;23.288;2022-10-22T03:02:38;40.13;;;22.63;;
13040;SDS011;6587;42.728;23.288;2022-10-22T03:05:06;38.70;;;23.10;;
13040;SDS011;6587;42.728;23.288;2022-10-22T03:07:32;43.50;;;25.67;;
13040;SDS011;6587;42.728;23.288;2022-10-22T03:09:59;39.77;;;23.77;;
13040;SDS011;6587;42.728;23.288;2022-10-22T03:12:27;37.67;;;22.60;;
13040;SDS011;6587;42.728;23.288;2022-10-22T03:14:54;38.43;;;23.20;;
13040;SDS011;6587;42.728;23.288;2022-10-22T03:17:22;45.93;;;23.50;;
13040;SDS011;6587;42.728;23.288;2022-10-22T03:19:49;41.03;;;20.60;;
13040;SDS011;6587;42.728;23.288;2022-10-22T03:22:17;36.33;;;21.80;;
13040;SDS011;6587;42.728;23.288;2022-10-22T03:24:45;37.23;;;21.63;;
13040;SDS011;6587;42.728;23.288;2022-10-22T03:27:14;37.83;;;21.47;;
13040;SDS011;6587;42.728;23.288;2022-10-22T03:29:43;35.13;;;20.13;;
13040;SDS011;6587;42.728;23.288;2022-10-22T03:32:11;38.87;;;21.70;;
13040;SDS011;6587;42.728;23.288;2022-10-22T03:34:38;41.10;;;22.33;;
13040;SDS011;6587;42.728;23.288;2022-10-22T03:37:05;38.17;;;21.47;;
13040;SDS011;6587;42.728;23.288;2022-10-22T03:39:32;38.37;;;21.57;;
13040;SDS011;6587;42.728;23.288;2022-10-22T03:42:00;40.77;;;21.67;;
13040;SDS011;6587;42.728;23.288;2022-10-22T03:44:27;35.60;;;21.43;;
13040;SDS011;6587;42.728;23.288;2022-10-22T03:46:56;39.17;;;22.40;;
13040;SDS011;6587;42.728;23.288;2022-10-22T03:49:23;39.77;;;23.63;;
13040;SDS011;6587;42.728;23.288;2022-10-22T03:51:49;39.70;;;22.77;;
13040;SDS011;6587;42.728;23.288;2022-10-22T03:54:16;37.63;;;23.37;;
13040;SDS011;6587;42.728;23.288;2022-10-22T03:56:43;43.60;;;22.97;;
13040;SDS011;6587;42.728;23.288;2022-10-22T03:59:09;44.27;;;22.03;;
13040;SDS011;6587;42.728;23.288;2022-10-22T04:01:37;40.47;;;26.17;;
13040;SDS011;6587;42.728;23.288;2022-10-22T04:04:06;54.57;;;25.27;;
13040;SDS011;6587;42.728;23.288;2022-10-22T04:06:33;43.57;;;24.47;;
13040;SDS011;6587;42.728;23.288;2022-10-22T04:08:59;40.70;;;24.10;;
13040;SDS011;6587;42.728;23.288;2022-10-22T04:11:26;36.87;;;23.23;;
13040;SDS011;6587;42.728;23.288;2022-10-22T04:13:53;39.80;;;22.87;;
13040;SDS011;6587;42.728;23.288;2022-10-22T04:16:20;40.63;;;22.93;;
13040;SDS011;6587;42.728;23.288;2022-10-22T04:18:47;39.83;;;22.90;;
13040;SDS011;6587;42.728;23.288;2022-10-22T04:21:16;44.20;;;24.33;;
13040;SDS011;6587;42.728;23.288;2022-10-22T04:23:43;45.07;;;24.43;;
13040;SDS011;6587;42.728;23.288;2022-10-22T04:26:10;50.23;;;24.80;;
13040;SDS011;6587;42.728;23.288;2022-10-22T04:28:36;43.73;;;23.87;;
13040;SDS011;6587;42.728;23.288;2022-10-22T04:31:06;50.20;;;25.67;;
13040;SDS011;6587;42.728;23.288;2022-10-22T04:33:33;44.77;;;24.17;;
13040;SDS011;6587;42.728;23.288;2022-10-22T04:35:59;43.70;;;23.83;;
13040;SDS011;6587;42.728;23.288;2022-10-22T04:38:28;69.07;;;33.77;;
13040;SDS011;6587;42.728;23.288;2022-10-22T04:40:55;62.33;;;32.37;;
13040;SDS011;6587;42.728;23.288;2022-10-22T04:43:21;71.07;;;35.53;;
13040;SDS011;6587;42.728;23.288;2022-10-22T04:45:48;43.87;;;24.97;;
13040;SDS011;6587;42.728;23.288;2022-10-22T04:48:15;59.93;;;32.27;;
13040;SDS011;6587;42.728;23.288;2022-10-22T04:50:41;81.47;;;45.57;;
13040;SDS011;6587;42.728;23.288;2022-10-22T04:53:08;83.80;;;42.93;;
13040;SDS011;6587;42.728;23.288;2022-10-22T04:55:36;57.87;;;33.07;;
13040;SDS011;6587;42.728;23.288;2022-10-22T04:58:03;54.43;;;29.33;;
13040;SDS011;6587;42.728;23.288;2022-10-22T05:00:30;49.67;;;28.07;;
13040;SDS011;6587;42.728;23.288;2022-10-22T05:02:56;45.67;;;24.40;;
13040;SDS011;6587;42.728;23.288;2022-10-22T05:05:23;43.27;;;23.30;;
13040;SDS011;6587;42.728;23.288;2022-10-22T05:07:49;42.30;;;23.40;;
13040;SDS011;6587;42.728;23.288;2022-10-22T05:10:16;33.20;;;20.97;;
13040;SDS011;6587;42.728;23.288;2022-10-22T05:12:44;38.13;;;20.80;;
13040;SDS011;6587;42.728;23.288;2022-10-22T05:15:11;42.27;;;22.50;;
13040;SDS011;6587;42.728;23.288;2022-10-22T05:17:37;47.87;;;22.60;;
13040;SDS011;6587;42.728;23.288;2022-10-22T05:20:04;44.10;;;21.40;;
13040;SDS011;6587;42.728;23.288;2022-10-22T05:22:32;38.63;;;22.43;;
13040;SDS011;6587;42.728;23.288;2022-10-22T05:24:59;49.23;;;24.23;;
13040;SDS011;6587;42.728;23.288;2022-10-22T05:27:25;40.13;;;22.13;;
13040;SDS011;6587;42.728;23.288;2022-10-22T05:29:53;43.70;;;23.60;;
13040;SDS011;6587;42.728;23.288;2022-10-22T05:32:20;51.47;;;24.30;;
13040;SDS011;6587;42.728;23.288;2022-10-22T05:34:47;50.23;;;23.70;;
13040;SDS011;6587;42.728;23.288;2022-10-22T05:37:13;45.40;;;23.87;;
13040;SDS011;6587;42.728;23.288;2022-10-22T05:39:40;50.57;;;24.53;;
13040;SDS011;6587;42.728;23.288;2022-10-22T05:42:06;48.77;;;24.53;;
13040;SDS011;6587;42.728;23.288;2022-10-22T05:44:33;46.87;;;23.57;;
13040;SDS011;6587;42.728;23.288;2022-10-22T05:47:01;42.80;;;24.20;;
13040;SDS011;6587;42.728;23.288;2022-10-22T05:49:28;46.67;;;24.47;;
13040;SDS011;6587;42.728;23.288;2022-10-22T05:51:54;49.67;;;23.37;;
13040;SDS011;6587;42.728;23.288;2022-10-22T05:54:21;53.20;;;26.07;;
13040;SDS011;6587;42.728;23.288;2022-10-22T05:56:47;42.83;;;23.87;;
13040;SDS011;6587;42.728;23.288;2022-10-22T05:59:14;44.60;;;24.27;;
13040;SDS011;6587;42.728;23.288;2022-10-22T06:01:41;41.43;;;23.83;;
13040;SDS011;6587;42.728;23.288;2022-10-22T06:04:10;51.23;;;28.67;;
13040;SDS011;6587;42.728;23.288;2022-10-22T06:06:38;43.63;;;26.23;;
13040;SDS011;6587;42.728;23.288;2022-10-22T06:09:06;48.23;;;26.00;;
13040;SDS011;6587;42.728;23.288;2022-10-22T06:11:36;50.80;;;29.10;;
13040;SDS011;6587;42.728;23.288;2022-10-22T06:14:02;55.97;;;28.00;;
13040;SDS011;6587;42.728;23.288;2022-10-22T06:16:29;59.97;;;27.33;;
13040;SDS011;6587;42.728;23.288;2022-10-22T06:18:57;46.47;;;25.33;;
13040;SDS011;6587;42.728;23.288;2022-10-22T06:21:25;54.20;;;27.07;;
13040;SDS011;6587;42.728;23.288;2022-10-22T06:23:54;51.37;;;28.33;;
13040;SDS011;6587;42.728;23.288;2022-10-22T06:26:20;59.53;;;35.97;;
13040;SDS011;6587;42.728;23.288;2022-10-22T06:28:47;83.60;;;50.70;;
13040;SDS011;6587;42.728;23.288;2022-10-22T06:31:13;111.93;;;63.30;;
13040;SDS011;6587;42.728;23.288;2022-10-22T06:33:40;100.53;;;54.03;;
13040;SDS011;6587;42.728;23.288;2022-10-22T06:36:08;56.63;;;35.30;;
13040;SDS011;6587;42.728;23.288;2022-10-22T06:38:37;50.87;;;29.53;;
13040;SDS011;6587;42.728;23.288;2022-10-22T06:41:04;56.73;;;28.87;;
13040;SDS011;6587;42.728;23.288;2022-10-22T06:43:31;55.10;;;28.87;;
13040;SDS011;6587;42.728;23.288;2022-10-22T06:45:58;46.77;;;28.80;;
13040;SDS011;6587;42.728;23.288;2022-10-22T06:48:25;46.63;;;27.83;;
13040;SDS011;6587;42.728;23.288;2022-10-22T06:50:51;49.07;;;28.73;;
13040;SDS011;6587;42.728;23.288;2022-10-22T06:53:18;55.80;;;31.63;;
13040;SDS011;6587;42.728;23.288;2022-10-22T06:55:46;48.60;;;29.23;;
13040;SDS011;6587;42.728;23.288;2022-10-22T06:58:12;42.10;;;25.03;;
13040;SDS011;6587;42.728;23.288;2022-10-22T07:00:39;42.13;;;23.73;;
13040;SDS011;6587;42.728;23.288;2022-10-22T07:03:05;46.53;;;26.90;;
13040;SDS011;6587;42.728;23.288;2022-10-22T07:05:32;47.33;;;26.97;;
13040;SDS011;6587;42.728;23.288;2022-10-22T07:07:59;32.80;;;20.20;;
13040;SDS011;6587;42.728;23.288;2022-10-22T07:10:25;38.87;;;21.17;;
13040;SDS011;6587;42.728;23.288;2022-10-22T07:12:53;37.10;;;20.83;;
13040;SDS011;6587;42.728;23.288;2022-10-22T07:15:20;32.10;;;20.43;;
13040;SDS011;6587;42.728;23.288;2022-10-22T07:17:46;39.17;;;20.57;;
13040;SDS011;6587;42.728;23.288;2022-10-22T07:20:13;31.20;;;19.67;;
13040;SDS011;6587;42.728;23.288;2022-10-22T07:22:40;40.70;;;21.87;;
13040;SDS011;6587;42.728;23.288;2022-10-22T07:25:07;36.03;;;21.60;;
13040;SDS011;6587;42.728;23.288;2022-10-22T07:27:34;38.70;;;21.57;;
13040;SDS011;6587;42.728;23.288;2022-10-22T07:30:02;34.40;;;20.33;;
13040;SDS011;6587;42.728;23.288;2022-10-22T07:32:29;31.80;;;19.23;;
13040;SDS011;6587;42.728;23.288;2022-10-22T07:34:55;33.83;;;17.83;;
13040;SDS011;6587;42.728;23.288;2022-10-22T07:37:22;32.83;;;20.80;;
13040;SDS011;6587;42.728;23.288;2022-10-22T07:39:49;33.07;;;19.53;;
13040;SDS011;6587;42.728;23.288;2022-10-22T07:42:16;34.23;;;19.67;;
13040;SDS011;6587;42.728;23.288;2022-10-22T07:44:42;34.60;;;20.40;;
13040;SDS011;6587;42.728;23.288;2022-10-22T07:47:10;36.43;;;22.00;;
13040;SDS011;6587;42.728;23.288;2022-10-22T07:49:37;34.03;;;20.97;;
13040;SDS011;6587;42.728;23.288;2022-10-22T07:52:05;35.30;;;20.27;;
13040;SDS011;6587;42.728;23.288;2022-10-22T07:54:31;33.60;;;21.50;;
13040;SDS011;6587;42.728;23.288;2022-10-22T07:56:58;32.80;;;19.97;;
13040;SDS011;6587;42.728;23.288;2022-10-22T07:59:25;37.73;;;21.70;;
13040;SDS011;6587;42.728;23.288;2022-10-22T08:01:51;32.20;;;21.03;;
13040;SDS011;6587;42.728;23.288;2022-10-22T08:04:19;36.37;;;21.17;;
13040;SDS011;6587;42.728;23.288;2022-10-22T08:06:46;36.17;;;21.13;;
13040;SDS011;6587;42.728;23.288;2022-10-22T08:09:12;34.47;;;22.23;;
13040;SDS011;6587;42.728;23.288;2022-10-22T08:11:39;33.60;;;20.60;;
13040;SDS011;6587;42.728;23.288;2022-10-22T08:14:06;39.13;;;23.23;;
13040;SDS011;6587;42.728;23.288;2022-10-22T08:16:34;31.60;;;20.27;;
13040;SDS011;6587;42.728;23.288;2022-10-22T08:19:00;31.03;;;19.37;;
13040;SDS011;6587;42.728;23.288;2022-10-22T08:21:28;33.67;;;20.23;;
13040;SDS011;6587;42.728;23.288;2022-10-22T08:23:55;37.93;;;20.63;;
13040;SDS011;6587;42.728;23.288;2022-10-22T08:26:21;37.30;;;19.90;;
13040;SDS011;6587;42.728;23.288;2022-10-22T08:28:48;35.13;;;20.50;;
13040;SDS011;6587;42.728;23.288;2022-10-22T08:31:14;31.17;;;19.00;;
13040;SDS011;6587;42.728;23.288;2022-10-22T08:33:41;29.40;;;18.87;;
13040;SDS011;6587;42.728;23.288;2022-10-22T08:36:08;29.13;;;19.13;;
13040;SDS011;6587;42.728;23.288;2022-10-22T08:38:36;33.97;;;19.60;;
13040;SDS011;6587;42.728;23.288;2022-10-22T08:41:06;35.63;;;19.17;;
13040;SDS011;6587;42.728;23.288;2022-10-22T08:43:46;33.43;;;19.93;;
13040;SDS011;6587;42.728;23.288;2022-10-22T08:46:17;26.63;;;16.80;;
13040;SDS011;6587;42.728;23.288;2022-10-22T08:48:48;29.73;;;19.03;;
13040;SDS011;6587;42.728;23.288;2022-10-22T08:51:16;26.83;;;17.43;;
13040;SDS011;6587;42.728;23.288;2022-10-22T08:53:47;29.03;;;17.67;;
13040;SDS011;6587;42.728;23.288;2022-10-22T08:56:16;26.73;;;17.13;;
13040;SDS011;6587;42.728;23.288;2022-10-22T08:58:44;24.33;;;16.17;;
13040;SDS011;6587;42.728;23.288;2022-10-22T09:01:13;27.83;;;17.50;;
13040;SDS011;6587;42.728;23.288;2022-10-22T09:03:43;24.20;;;16.23;;
13040;SDS011;6587;42.728;23.288;2022-10-22T09:06:13;22.37;;;15.93;;
13040;SDS011;6587;42.728;23.288;2022-10-22T09:08:41;24.93;;;17.20;;
13040;SDS011;6587;42.728;23.288;2022-10-22T09:11:15;26.27;;;16.27;;
13040;SDS011;6587;42.728;23.288;2022-10-22T09:13:44;24.47;;;15.63;;
13040;SDS011;6587;42.728;23.288;2022-10-22T09:16:13;21.43;;;15.27;;
13040;SDS011;6587;42.728;23.288;2022-10-22T09:18:40;28.40;;;15.10;;
13040;SDS011;6587;42.728;23.288;2022-10-22T09:21:13;25.90;;;15.50;;
13040;SDS011;6587;42.728;23.288;2022-10-22T09:23:46;30.10;;;15.70;;
13040;SDS011;6587;42.728;23.288;2022-10-22T09:26:17;24.13;;;15.07;;
13040;SDS011;6587;42.728;23.288;2022-10-22T09:28:47;23.10;;;15.77;;
13040;SDS011;6587;42.728;23.288;2022-10-22T09:31:14;22.70;;;14.73;;
13040;SDS011;6587;42.728;23.288;2022-10-22T09:33:42;21.83;;;14.73;;
13040;SDS011;6587;42.728;23.288;2022-10-22T09:36:12;22.30;;;13.97;;
13040;SDS011;6587;42.728;23.288;2022-10-22T09:38:39;23.43;;;14.73;;
13040;SDS011;6587;42.728;23.288;2022-10-22T09:41:06;21.93;;;14.33;;
13040;SDS011;6587;42.728;23.288;2022-10-22T09:43:35;22.30;;;14.90;;
13040;SDS011;6587;42.728;23.288;2022-10-22T09:46:03;19.77;;;14.50;;
13040;SDS011;6587;42.728;23.288;2022-10-22T09:48:31;24.00;;;14.97;;
13040;SDS011;6587;42.728;23.288;2022-10-22T09:51:01;23.60;;;15.10;;
13040;SDS011;6587;42.728;23.288;2022-10-22T09:53:28;24.50;;;16.13;;
13040;SDS011;6587;42.728;23.288;2022-10-22T09:55:56;25.40;;;16.90;;
13040;SDS011;6587;42.728;23.288;2022-10-22T09:58:23;25.10;;;17.10;;
13040;SDS011;6587;42.728;23.288;2022-10-22T10:00:52;25.70;;;16.77;;
13040;SDS011;6587;42.728;23.288;2022-10-22T10:03:21;22.53;;;16.53;;
13040;SDS011;6587;42.728;23.288;2022-10-22T10:05:49;24.73;;;16.87;;
13040;SDS011;6587;42.728;23.288;2022-10-22T10:08:17;27.27;;;17.50;;
13040;SDS011;6587;42.728;23.288;2022-10-22T10:10:44;27.60;;;17.67;;
13040;SDS011;6587;42.728;23.288;2022-10-22T10:13:25;26.57;;;16.73;;
13040;SDS011;6587;42.728;23.288;2022-10-22T10:15:58;24.17;;;15.77;;
13040;SDS011;6587;42.728;23.288;2022-10-22T10:18:30;29.07;;;16.77;;
13040;SDS011;6587;42.728;23.288;2022-10-22T10:21:00;24.80;;;16.17;;
13040;SDS011;6587;42.728;23.288;2022-10-22T10:23:30;26.50;;;16.77;;
13040;SDS011;6587;42.728;23.288;2022-10-22T10:26:00;25.17;;;16.23;;
13040;SDS011;6587;42.728;23.288;2022-10-22T10:28:33;26.97;;;16.30;;
13040;SDS011;6587;42.728;23.288;2022-10-22T10:31:04;24.00;;;16.83;;
13040;SDS011;6587;42.728;23.288;2022-10-22T10:33:37;23.90;;;15.90;;
13040;SDS011;6587;42.728;23.288;2022-10-22T10:36:09;23.83;;;16.33;;
13040;SDS011;6587;42.728;23.288;2022-10-22T10:38:39;30.15;;;17.50;;
13040;SDS011;6587;42.728;23.288;2022-10-22T10:41:12;23.77;;;16.40;;
13040;SDS011;6587;42.728;23.288;2022-10-22T10:43:43;23.73;;;17.00;;
13040;SDS011;6587;42.728;23.288;2022-10-22T10:46:15;22.92;;;17.30;;
13040;SDS011;6587;42.728;23.288;2022-10-22T10:48:47;29.48;;;18.55;;
13040;SDS011;6587;42.728;23.288;2022-10-22T10:51:20;26.52;;;17.50;;
13040;SDS011;6587;42.728;23.288;2022-10-22T10:53:56;22.38;;;16.77;;
13040;SDS011;6587;42.728;23.288;2022-10-22T10:56:36;23.50;;;16.63;;
13040;SDS011;6587;42.728;23.288;2022-10-22T10:59:09;25.67;;;15.90;;
13040;SDS011;6587;42.728;23.288;2022-10-22T11:01:40;26.90;;;16.20;;
13040;SDS011;6587;42.728;23.288;2022-10-22T11:04:19;24.60;;;15.98;;
13040;SDS011;6587;42.728;23.288;2022-10-22T11:06:49;22.02;;;15.70;;
13040;SDS011;6587;42.728;23.288;2022-10-22T11:09:20;23.02;;;15.43;;
13040;SDS011;6587;42.728;23.288;2022-10-22T11:11:47;22.50;;;16.05;;
13040;SDS011;6587;42.728;23.288;2022-10-22T11:14:17;23.17;;;15.90;;
13040;SDS011;6587;42.728;23.288;2022-10-22T11:16:48;23.88;;;15.55;;
13040;SDS011;6587;42.728;23.288;2022-10-22T11:19:19;23.80;;;15.40;;
13040;SDS011;6587;42.728;23.288;2022-10-22T11:21:48;20.27;;;14.90;;
13040;SDS011;6587;42.728;23.288;2022-10-22T11:24:18;22.98;;;15.40;;
13040;SDS011;6587;42.728;23.288;2022-10-22T11:26:47;20.60;;;15.10;;
13040;SDS011;6587;42.728;23.288;2022-10-22T11:29:16;24.05;;;16.23;;
13040;SDS011;6587;42.728;23.288;2022-10-22T11:31:44;20.25;;;14.98;;
13040;SDS011;6587;42.728;23.288;2022-10-22T11:34:15;19.70;;;15.35;;
13040;SDS011;6587;42.728;23.288;2022-10-22T11:36:43;20.40;;;14.57;;
13040;SDS011;6587;42.728;23.288;2022-10-22T11:39:26;23.60;;;14.50;;
13040;SDS011;6587;42.728;23.288;2022-10-22T11:41:54;18.65;;;14.80;;
13040;SDS011;6587;42.728;23.288;2022-10-22T11:44:23;22.58;;;14.45;;
13040;SDS011;6587;42.728;23.288;2022-10-22T11:46:53;21.55;;;14.27;;
13040;SDS011;6587;42.728;23.288;2022-10-22T11:49:25;21.02;;;15.13;;
13040;SDS011;6587;42.728;23.288;2022-10-22T11:52:04;21.50;;;14.25;;
13040;SDS011;6587;42.728;23.288;2022-10-22T11:54:38;20.80;;;14.82;;
13040;SDS011;6587;42.728;23.288;2022-10-22T11:59:57;19.73;;;13.98;;
13040;SDS011;6587;42.728;23.288;2022-10-22T12:02:29;21.40;;;14.43;;
13040;SDS011;6587;42.728;23.288;2022-10-22T12:07:49;18.27;;;13.50;;
13040;SDS011;6587;42.728;23.288;2022-10-22T12:10:17;19.48;;;14.05;;
13040;SDS011;6587;42.728;23.288;2022-10-22T12:12:44;20.08;;;13.95;;
13040;SDS011;6587;42.728;23.288;2022-10-22T12:15:20;19.25;;;14.00;;
13040;SDS011;6587;42.728;23.288;2022-10-22T12:17:48;17.85;;;13.55;;
13040;SDS011;6587;42.728;23.288;2022-10-22T12:20:15;17.45;;;13.63;;
13040;SDS011;6587;42.728;23.288;2022-10-22T12:22:43;19.50;;;13.40;;
13040;SDS011;6587;42.728;23.288;2022-10-22T12:25:17;18.23;;;13.77;;
13040;SDS011;6587;42.728;23.288;2022-10-22T12:27:48;20.17;;;13.18;;
13040;SDS011;6587;42.728;23.288;2022-10-22T12:30:16;20.60;;;14.57;;
13040;SDS011;6587;42.728;23.288;2022-10-22T12:32:44;21.77;;;14.55;;
13040;SDS011;6587;42.728;23.288;2022-10-22T12:35:15;20.38;;;14.15;;
13040;SDS011;6587;42.728;23.288;2022-10-22T12:37:42;18.17;;;13.13;;
13040;SDS011;6587;42.728;23.288;2022-10-22T12:40:16;16.85;;;13.32;;
13040;SDS011;6587;42.728;23.288;2022-10-22T12:42:48;22.98;;;13.55;;
13040;SDS011;6587;42.728;23.288;2022-10-22T12:45:15;19.30;;;13.32;;
13040;SDS011;6587;42.728;23.288;2022-10-22T12:47:44;19.85;;;13.00;;
13040;SDS011;6587;42.728;23.288;2022-10-22T12:50:13;19.73;;;13.70;;
13040;SDS011;6587;42.728;23.288;2022-10-22T12:52:41;21.27;;;14.40;;
13040;SDS011;6587;42.728;23.288;2022-10-22T12:55:13;19.23;;;13.07;;
13040;SDS011;6587;42.728;23.288;2022-10-22T12:57:41;22.60;;;13.05;;
13040;SDS011;6587;42.728;23.288;2022-10-22T13:00:18;19.33;;;12.15;;
13040;SDS011;6587;42.728;23.288;2022-10-22T13:02:45;17.45;;;12.32;;
13040;SDS011;6587;42.728;23.288;2022-10-22T13:05:16;18.30;;;12.65;;
13040;SDS011;6587;42.728;23.288;2022-10-22T13:07:46;15.32;;;11.50;;
13040;SDS011;6587;42.728;23.288;2022-10-22T13:10:14;18.60;;;11.85;;
13040;SDS011;6587;42.728;23.288;2022-10-22T13:12:47;18.08;;;11.60;;
13040;SDS011;6587;42.728;23.288;2022-10-22T13:15:18;16.20;;;10.95;;
13040;SDS011;6587;42.728;23.288;2022-10-22T13:17:45;18.00;;;11.52;;
13040;SDS011;6587;42.728;23.288;2022-10-22T13:20:17;14.57;;;11.80;;
13040;SDS011;6587;42.728;23.288;2022-10-22T13:22:51;14.73;;;11.38;;
13040;SDS011;6587;42.728;23.288;2022-10-22T13:25:20;19.98;;;12.45;;
13040;SDS011;6587;42.728;23.288;2022-10-22T13:27:49;18.23;;;12.32;;
13040;SDS011;6587;42.728;23.288;2022-10-22T13:30:17;17.52;;;11.98;;
13040;SDS011;6587;42.728;23.288;2022-10-22T13:32:47;17.52;;;11.82;;
13040;SDS011;6587;42.728;23.288;2022-10-22T13:35:14;22.27;;;13.38;;
13040;SDS011;6587;42.728;23.288;2022-10-22T13:37:43;18.83;;;12.15;;
13040;SDS011;6587;42.728;23.288;2022-10-22T13:40:10;17.27;;;12.25;;
13040;SDS011;6587;42.728;23.288;2022-10-22T13:42:37;16.00;;;11.25;;
13040;SDS011;6587;42.728;23.288;2022-10-22T13:45:06;15.02;;;11.02;;
13040;SDS011;6587;42.728;23.288;2022-10-22T13:47:33;18.80;;;11.95;;
13040;SDS011;6587;42.728;23.288;2022-10-22T13:50:00;21.70;;;11.60;;
13040;SDS011;6587;42.728;23.288;2022-10-22T13:52:33;16.08;;;11.02;;
13040;SDS011;6587;42.728;23.288;2022-10-22T13:55:01;19.63;;;11.32;;
13040;SDS011;6587;42.728;23.288;2022-10-22T13:57:27;16.65;;;11.50;;
13040;SDS011;6587;42.728;23.288;2022-10-22T13:59:54;18.17;;;11.60;;
13040;SDS011;6587;42.728;23.288;2022-10-22T14:02:22;19.98;;;11.85;;
13040;SDS011;6587;42.728;23.288;2022-10-22T14:04:49;20.80;;;11.68;;
13040;SDS011;6587;42.728;23.288;2022-10-22T14:07:16;19.63;;;11.73;;
13040;SDS011;6587;42.728;23.288;2022-10-22T14:09:43;17.55;;;11.60;;
13040;SDS011;6587;42.728;23.288;2022-10-22T14:12:10;16.67;;;12.02;;
13040;SDS011;6587;42.728;23.288;2022-10-22T14:14:36;18.30;;;12.60;;
13040;SDS011;6587;42.728;23.288;2022-10-22T14:17:03;16.65;;;11.77;;
13040;SDS011;6587;42.728;23.288;2022-10-22T14:19:32;20.55;;;12.80;;
13040;SDS011;6587;42.728;23.288;2022-10-22T14:21:58;19.75;;;12.80;;
13040;SDS011;6587;42.728;23.288;2022-10-22T14:24:25;14.85;;;12.25;;
13040;SDS011;6587;42.728;23.288;2022-10-22T14:26:51;17.98;;;12.48;;
13040;SDS011;6587;42.728;23.288;2022-10-22T14:29:18;26.20;;;12.85;;
13040;SDS011;6587;42.728;23.288;2022-10-22T14:31:44;16.65;;;11.45;;
13040;SDS011;6587;42.728;23.288;2022-10-22T14:34:11;16.33;;;10.50;;